createdAt,value
2023-01-06T00:00:36.334Z,7.17
2023-01-06T00:03:04.090Z,5.23
2023-01-06T00:05:31.752Z,8.57
2023-01-06T00:07:59.497Z,6.97
2023-01-06T00:10:26.665Z,7.67
2023-01-06T00:12:54.249Z,7.87
2023-01-06T00:15:21.397Z,5.87
2023-01-06T00:17:48.652Z,5.80
2023-01-06T00:20:15.834Z,6.03
2023-01-06T00:22:43.368Z,8.10
2023-01-06T00:25:10.987Z,8.50
2023-01-06T00:27:39.103Z,5.50
2023-01-06T00:30:07.241Z,5.63
2023-01-06T00:32:34.794Z,7.23
2023-01-06T00:35:02.004Z,5.97
2023-01-06T00:37:29.229Z,6.17
2023-01-06T00:39:56.418Z,6.10
2023-01-06T00:42:24.840Z,8.47
2023-01-06T00:44:52.510Z,8.40
2023-01-06T00:47:20.064Z,6.83
2023-01-06T00:49:47.683Z,7.43
2023-01-06T00:52:15.413Z,7.33
2023-01-06T00:54:43.208Z,5.87
2023-01-06T00:57:10.432Z,7.63
2023-01-06T00:59:37.813Z,8.07
2023-01-06T01:02:05.202Z,6.00
2023-01-06T01:04:32.452Z,6.37
2023-01-06T01:07:00.534Z,7.10
2023-01-06T01:09:29.789Z,7.50
2023-01-06T01:12:09.862Z,6.80
2023-01-06T01:14:41.521Z,6.33
2023-01-06T01:17:09.157Z,5.50
2023-01-06T01:19:36.620Z,6.20
2023-01-06T01:22:04.075Z,6.50
2023-01-06T01:24:31.280Z,7.60
2023-01-06T01:26:58.462Z,7.37
2023-01-06T01:29:25.782Z,6.43
2023-01-06T01:31:53.309Z,5.83
2023-01-06T01:34:20.860Z,6.07
2023-01-06T01:36:48.629Z,6.67
2023-01-06T01:39:17.103Z,7.00
2023-01-06T01:41:44.337Z,6.20
2023-01-06T01:44:30.387Z,7.20
2023-01-06T01:46:57.561Z,6.13
2023-01-06T01:49:26.912Z,6.37
2023-01-06T01:51:54.965Z,6.10
2023-01-06T01:54:32.985Z,7.63
2023-01-06T01:57:02.194Z,5.20
2023-01-06T01:59:30.571Z,7.33
2023-01-06T02:01:57.975Z,5.90
2023-01-06T02:04:26.587Z,8.77
2023-01-06T02:06:54.068Z,6.30
2023-01-06T02:09:24.232Z,5.50
2023-01-06T02:11:52.231Z,6.27
2023-01-06T02:14:23.355Z,6.53
2023-01-06T02:16:53.543Z,6.43
2023-01-06T02:19:35.981Z,5.77
2023-01-06T02:22:15.360Z,6.43
2023-01-06T02:24:55.740Z,7.20
2023-01-06T02:27:43.099Z,7.80
2023-01-06T02:30:10.216Z,8.37
2023-01-06T02:32:52.573Z,5.80
2023-01-06T02:35:38.628Z,6.33
2023-01-06T02:38:15.012Z,6.00
2023-01-06T02:40:58.153Z,7.77
2023-01-06T02:43:51.605Z,7.20
2023-01-06T02:46:33.132Z,7.63
2023-01-06T02:49:26.726Z,8.10
2023-01-06T02:51:53.856Z,6.13
2023-01-06T02:54:30.196Z,7.10
2023-01-06T02:57:19.247Z,6.43
2023-01-06T02:59:50.867Z,6.00
2023-01-06T03:02:19.755Z,5.20
2023-01-06T03:04:48.095Z,7.93
2023-01-06T03:07:16.328Z,6.80
2023-01-06T03:09:44.438Z,8.03
2023-01-06T03:12:21.301Z,7.40
2023-01-06T03:14:51.703Z,8.27
2023-01-06T03:17:18.875Z,6.67
2023-01-06T03:19:46.440Z,6.90
2023-01-06T03:22:14.059Z,7.37
2023-01-06T03:24:41.404Z,7.87
2023-01-06T03:27:09.338Z,6.50
2023-01-06T03:29:37.179Z,6.03
2023-01-06T03:32:09.467Z,5.90
2023-01-06T03:34:58.029Z,5.77
2023-01-06T03:37:31.316Z,8.33
2023-01-06T03:40:15.301Z,7.23
2023-01-06T03:43:09.856Z,7.47
2023-01-06T03:45:52.907Z,7.37
2023-01-06T03:48:26.551Z,7.73
2023-01-06T03:50:56.415Z,7.03
2023-01-06T03:53:35.688Z,8.03
2023-01-06T03:56:09.827Z,6.73
2023-01-06T03:58:38.401Z,6.83
2023-01-06T04:01:06.640Z,6.63
2023-01-06T04:03:34.134Z,6.43
2023-01-06T04:06:01.313Z,5.83
2023-01-06T04:08:28.556Z,8.67
2023-01-06T04:10:55.703Z,7.43
2023-01-06T04:13:22.906Z,7.37
2023-01-06T04:15:50.259Z,6.37
2023-01-06T04:18:17.409Z,7.77
2023-01-06T04:20:44.569Z,6.13
2023-01-06T04:23:11.751Z,8.07
2023-01-06T04:25:39.085Z,7.40
2023-01-06T04:28:06.886Z,6.73
2023-01-06T04:30:34.007Z,9.33
2023-01-06T04:33:01.344Z,6.07
2023-01-06T04:35:28.529Z,7.33
2023-01-06T04:37:55.671Z,8.00
2023-01-06T04:40:22.903Z,5.43
2023-01-06T04:43:04.977Z,7.53
2023-01-06T04:45:32.485Z,6.87
2023-01-06T04:47:59.685Z,6.67
2023-01-06T04:50:26.931Z,7.00
2023-01-06T04:52:54.075Z,6.53
2023-01-06T04:55:21.303Z,8.00
2023-01-06T04:57:48.504Z,7.50
2023-01-06T05:00:15.883Z,7.30
2023-01-06T05:02:43.286Z,8.93
2023-01-06T05:05:10.831Z,6.33
2023-01-06T05:07:38.033Z,7.30
2023-01-06T05:10:05.877Z,6.93
2023-01-06T05:12:33.588Z,9.57
2023-01-06T05:15:00.722Z,8.73
2023-01-06T05:17:27.963Z,6.60
2023-01-06T05:19:55.159Z,9.63
2023-01-06T05:22:22.315Z,7.00
2023-01-06T05:24:49.464Z,8.80
2023-01-06T05:27:16.608Z,8.17
2023-01-06T05:29:43.793Z,8.23
2023-01-06T05:32:10.968Z,7.97
2023-01-06T05:34:38.096Z,9.13
2023-01-06T05:37:05.464Z,7.10
2023-01-06T05:39:32.608Z,6.87
2023-01-06T05:41:59.756Z,6.93
2023-01-06T05:44:26.864Z,8.80
2023-01-06T05:46:54.014Z,7.97
2023-01-06T05:49:21.149Z,8.00
2023-01-06T05:51:48.664Z,7.03
2023-01-06T05:54:15.811Z,8.47
2023-01-06T05:56:42.980Z,6.77
2023-01-06T05:59:10.235Z,9.13
2023-01-06T06:01:37.487Z,6.27
2023-01-06T06:04:04.790Z,7.47
2023-01-06T06:06:32.065Z,6.03
2023-01-06T06:08:59.405Z,6.90
2023-01-06T06:11:26.782Z,5.30
2023-01-06T06:13:55.127Z,7.43
2023-01-06T06:16:27.338Z,7.17
2023-01-06T06:18:55.529Z,15.03
2023-01-06T06:21:23.704Z,7.10
2023-01-06T06:23:52.719Z,6.50
2023-01-06T06:26:19.880Z,9.20
2023-01-06T06:28:47.148Z,9.60
2023-01-06T06:31:22.805Z,8.77
2023-01-06T06:33:53.561Z,6.10
2023-01-06T06:36:21.172Z,6.77
2023-01-06T06:38:49.610Z,7.57
2023-01-06T06:41:17.146Z,5.93
2023-01-06T06:43:44.327Z,9.57
2023-01-06T06:46:12.065Z,7.13
2023-01-06T06:48:39.721Z,6.80
2023-01-06T06:51:08.156Z,10.57
2023-01-06T06:53:35.468Z,6.90
2023-01-06T06:56:02.913Z,8.07
2023-01-06T06:58:30.235Z,8.47
2023-01-06T07:00:57.463Z,6.53
2023-01-06T07:03:25.318Z,7.83
2023-01-06T07:05:53.154Z,7.00
2023-01-06T07:08:20.782Z,8.70
2023-01-06T07:10:48.016Z,5.67
2023-01-06T07:13:15.157Z,5.50
2023-01-06T07:15:42.346Z,7.73
2023-01-06T07:18:09.607Z,6.83
2023-01-06T07:20:37.539Z,7.77
2023-01-06T07:23:05.281Z,5.87
2023-01-06T07:25:32.452Z,7.87
2023-01-06T07:28:00.927Z,7.97
2023-01-06T07:30:28.369Z,7.60
2023-01-06T07:32:55.564Z,5.97
2023-01-06T07:35:22.687Z,7.43
2023-01-06T07:37:49.870Z,8.13
2023-01-06T07:40:17.771Z,7.87
2023-01-06T07:42:45.300Z,7.77
2023-01-06T07:45:12.845Z,12.60
2023-01-06T07:47:40.061Z,6.67
2023-01-06T07:50:07.379Z,7.10
2023-01-06T07:52:34.500Z,5.97
2023-01-06T07:55:01.653Z,8.30
2023-01-06T07:57:29.887Z,7.27
2023-01-06T07:59:57.350Z,7.40
2023-01-06T08:02:24.634Z,7.03
2023-01-06T08:04:51.815Z,7.40
2023-01-06T08:07:19.105Z,6.47
2023-01-06T08:09:46.331Z,6.93
2023-01-06T08:12:13.527Z,7.90
2023-01-06T08:14:40.749Z,8.53
2023-01-06T08:17:07.908Z,8.10
2023-01-06T08:19:35.069Z,7.17
2023-01-06T08:22:02.524Z,11.33
2023-01-06T08:24:32.777Z,9.23
2023-01-06T08:26:59.975Z,8.87
2023-01-06T08:29:27.199Z,6.63
2023-01-06T08:32:02.217Z,8.90
2023-01-06T08:34:36.650Z,7.53
2023-01-06T08:37:03.947Z,8.97
2023-01-06T08:39:31.115Z,10.13
2023-01-06T08:41:58.453Z,8.27
2023-01-06T08:44:25.603Z,6.20
2023-01-06T08:46:52.747Z,10.33
2023-01-06T08:49:19.929Z,7.97
2023-01-06T08:51:47.069Z,6.10
2023-01-06T08:54:14.619Z,7.23
2023-01-06T08:56:43.529Z,7.27
2023-01-06T08:59:13.200Z,7.07
2023-01-06T09:01:40.438Z,6.50
2023-01-06T09:04:08.549Z,6.70
2023-01-06T09:06:36.206Z,7.83
2023-01-06T09:09:04.387Z,16.37
2023-01-06T09:11:31.593Z,6.83
2023-01-06T09:13:58.745Z,9.43
2023-01-06T09:16:25.900Z,7.87
2023-01-06T09:18:53.395Z,8.33
2023-01-06T09:21:21.853Z,6.20
2023-01-06T09:23:49.491Z,7.07
2023-01-06T09:26:17.653Z,9.63
2023-01-06T09:28:44.821Z,7.20
2023-01-06T09:31:12.103Z,6.90
2023-01-06T09:33:39.622Z,7.20
2023-01-06T09:36:07.169Z,7.50
2023-01-06T09:38:34.343Z,6.43
2023-01-06T09:41:07.843Z,6.73
2023-01-06T09:43:47.848Z,7.80
2023-01-06T09:46:16.805Z,6.17
2023-01-06T09:48:47.248Z,7.17
2023-01-06T09:51:19.408Z,7.50
2023-01-06T09:53:50.242Z,11.33
2023-01-06T09:56:19.843Z,9.20
2023-01-06T09:58:51.269Z,6.13
2023-01-06T10:01:21.325Z,7.20
2023-01-06T10:03:48.824Z,6.80
2023-01-06T10:06:26.298Z,8.20
2023-01-06T10:08:53.474Z,7.53
2023-01-06T10:11:32.703Z,6.10
2023-01-06T10:14:18.590Z,6.37
2023-01-06T10:17:04.148Z,6.03
2023-01-06T10:19:31.297Z,5.67
2023-01-06T10:21:58.746Z,8.17
2023-01-06T10:24:41.943Z,7.87
2023-01-06T10:27:18.557Z,9.80
2023-01-06T10:29:45.721Z,7.53
2023-01-06T10:32:16.566Z,6.83
2023-01-06T10:34:45.623Z,8.77
2023-01-06T10:37:15.446Z,8.20
2023-01-06T10:39:44.368Z,6.30
2023-01-06T10:42:42.428Z,7.57
2023-01-06T10:45:15.713Z,8.00
2023-01-06T10:47:44.142Z,7.03
2023-01-06T10:50:18.249Z,6.97
2023-01-06T10:52:46.244Z,7.97
2023-01-06T10:55:25.709Z,6.93
2023-01-06T10:57:54.626Z,6.80
2023-01-06T11:00:25.829Z,6.30
2023-01-06T11:02:57.773Z,5.17
2023-01-06T11:05:32.906Z,5.80
2023-01-06T11:08:02.994Z,7.80
2023-01-06T11:10:59.698Z,7.30
2023-01-06T11:13:26.867Z,6.23
2023-01-06T11:15:55.109Z,6.47
2023-01-06T11:18:27.309Z,7.07
2023-01-06T11:21:06.870Z,6.50
2023-01-06T11:23:34.387Z,7.27
2023-01-06T11:26:03.075Z,6.93
2023-01-06T11:28:30.766Z,7.90
2023-01-06T11:31:03.067Z,6.87
2023-01-06T11:33:32.365Z,6.90
2023-01-06T11:36:04.027Z,6.13
2023-01-06T11:38:31.236Z,6.63
2023-01-06T11:40:58.438Z,6.77
2023-01-06T11:43:30.739Z,7.03
2023-01-06T11:45:57.979Z,8.47
2023-01-06T11:48:30.954Z,6.13
2023-01-06T11:50:59.702Z,5.87
2023-01-06T11:53:29.285Z,6.93
2023-01-06T11:56:07.809Z,5.27
2023-01-06T11:58:40.815Z,5.00
2023-01-06T12:01:26.577Z,4.33
2023-01-06T12:03:55.564Z,5.83
2023-01-06T12:06:34.654Z,6.40
2023-01-06T12:09:03.627Z,4.63
2023-01-06T12:11:51.098Z,5.77
2023-01-06T12:14:27.826Z,6.97
2023-01-06T12:17:14.680Z,4.70
2023-01-06T12:19:46.261Z,5.00
2023-01-06T12:22:19.507Z,4.83
2023-01-06T12:24:48.067Z,4.60
2023-01-06T12:27:21.008Z,6.10
2023-01-06T12:29:49.166Z,6.17
2023-01-06T12:32:22.152Z,5.60
2023-01-06T12:34:51.729Z,6.27
2023-01-06T12:37:21.720Z,5.47
2023-01-06T12:39:58.160Z,9.30
2023-01-06T12:42:43.735Z,6.07
2023-01-06T12:45:20.041Z,4.47
2023-01-06T12:47:50.640Z,5.23
2023-01-06T12:50:17.774Z,4.90
2023-01-06T12:52:50.959Z,3.93
2023-01-06T12:55:21.961Z,5.73
2023-01-06T12:57:58.965Z,4.53
2023-01-06T13:00:34.849Z,5.30
2023-01-06T13:03:24.869Z,3.67
2023-01-06T13:05:52.817Z,4.57
2023-01-06T13:08:31.091Z,4.37
2023-01-06T13:11:13.404Z,4.17
2023-01-06T13:13:59.604Z,3.70
2023-01-06T13:16:29.805Z,4.13
2023-01-06T13:19:15.412Z,4.87
2023-01-06T13:21:43.647Z,5.27
2023-01-06T13:24:29.737Z,4.30
2023-01-06T13:27:12.237Z,3.93
2023-01-06T13:29:58.032Z,3.60
2023-01-06T13:32:25.157Z,4.33
2023-01-06T13:35:01.483Z,3.70
2023-01-06T13:37:28.660Z,3.97
2023-01-06T13:39:58.038Z,3.93
2023-01-06T13:42:47.632Z,4.50
2023-01-06T13:45:27.283Z,4.33
2023-01-06T13:47:55.261Z,3.90
2023-01-06T13:50:22.668Z,2.80
2023-01-06T13:52:49.968Z,3.57
2023-01-06T13:55:20.114Z,5.47
2023-01-06T13:57:47.241Z,4.30
2023-01-06T14:00:27.470Z,3.33
2023-01-06T14:02:54.664Z,3.93
2023-01-06T14:05:21.902Z,3.93
2023-01-06T14:08:00.188Z,3.37
2023-01-06T14:10:33.716Z,2.80
2023-01-06T14:13:02.067Z,4.53
2023-01-06T14:15:33.415Z,3.57
2023-01-06T14:18:01.215Z,3.20
2023-01-06T14:20:38.721Z,4.10
2023-01-06T14:23:14.902Z,3.10
2023-01-06T14:25:43.131Z,4.20
2023-01-06T14:28:22.338Z,3.33
2023-01-06T14:30:50.465Z,3.30
2023-01-06T14:33:32.467Z,3.80
2023-01-06T14:36:19.903Z,5.77
2023-01-06T14:38:52.499Z,3.57
2023-01-06T14:41:22.824Z,1.87
2023-01-06T14:44:16.455Z,4.70
2023-01-06T14:47:03.261Z,4.03
2023-01-06T14:50:02.963Z,5.23
2023-01-06T14:52:37.832Z,4.23
2023-01-06T14:55:09.210Z,3.60
2023-01-06T14:57:37.275Z,3.90
2023-01-06T15:00:07.503Z,2.80
2023-01-06T15:02:35.027Z,3.33
2023-01-06T15:05:02.744Z,2.97
2023-01-06T15:07:30.443Z,5.77
2023-01-06T15:10:13.816Z,2.60
2023-01-06T15:12:56.025Z,4.87
2023-01-06T15:15:28.277Z,3.93
2023-01-06T15:17:56.708Z,3.37
2023-01-06T15:20:34.890Z,2.67
2023-01-06T15:23:02.381Z,4.43
2023-01-06T15:25:32.581Z,2.83
2023-01-06T15:27:59.775Z,4.00
2023-01-06T15:30:28.450Z,4.77
2023-01-06T15:32:56.508Z,4.93
2023-01-06T15:35:26.136Z,3.70
2023-01-06T15:37:59.440Z,4.07
2023-01-06T15:40:27.248Z,5.53
2023-01-06T15:42:54.444Z,5.10
2023-01-06T15:45:33.246Z,3.57
2023-01-06T15:48:01.658Z,4.70
2023-01-06T15:50:31.704Z,4.63
2023-01-06T15:53:00.734Z,3.57
2023-01-06T15:55:30.209Z,3.23
2023-01-06T15:58:02.818Z,3.57
2023-01-06T16:00:31.863Z,2.10
2023-01-06T16:02:59.334Z,3.67
2023-01-06T16:05:38.202Z,3.47
2023-01-06T16:08:06.388Z,1.87
2023-01-06T16:10:37.527Z,2.57
2023-01-06T16:13:24.936Z,2.60
2023-01-06T16:15:55.861Z,3.17
2023-01-06T16:18:27.432Z,1.93
2023-01-06T16:20:54.826Z,3.03
2023-01-06T16:23:33.405Z,2.57
2023-01-06T16:26:15.523Z,3.00
2023-01-06T16:28:49.967Z,2.33
2023-01-06T16:31:36.265Z,3.13
2023-01-06T16:34:17.737Z,2.50
2023-01-06T16:36:45.097Z,5.97
2023-01-06T16:39:12.309Z,3.47
2023-01-06T16:41:39.523Z,4.33
2023-01-06T16:44:06.659Z,5.07
2023-01-06T16:46:33.952Z,3.73
2023-01-06T16:49:02.001Z,7.00
2023-01-06T16:51:29.764Z,5.13
2023-01-06T16:53:56.979Z,5.73
2023-01-06T16:56:24.201Z,5.10
2023-01-06T16:58:51.939Z,6.03
2023-01-06T17:01:20.759Z,6.50
2023-01-06T17:03:56.361Z,6.80
2023-01-06T17:06:25.855Z,6.27
2023-01-06T17:08:55.193Z,4.07
2023-01-06T17:11:24.249Z,5.27
2023-01-06T17:13:53.158Z,7.30
2023-01-06T17:16:26.868Z,6.73
2023-01-06T17:18:55.590Z,7.23
2023-01-06T17:21:24.742Z,6.60
2023-01-06T17:23:51.859Z,4.30
2023-01-06T17:26:20.342Z,7.13
2023-01-06T17:28:48.483Z,6.60
2023-01-06T17:31:16.899Z,8.97
2023-01-06T17:33:44.874Z,8.67
2023-01-06T17:36:19.312Z,5.90
2023-01-06T17:38:49.107Z,7.20
2023-01-06T17:41:17.501Z,6.53
2023-01-06T17:43:45.938Z,8.10
2023-01-06T17:46:36.791Z,6.97
2023-01-06T17:49:06.763Z,7.43
2023-01-06T17:51:33.924Z,8.57
2023-01-06T17:54:20.623Z,9.00
2023-01-06T17:56:47.974Z,8.47
2023-01-06T17:59:17.904Z,7.83
2023-01-06T18:01:45.149Z,7.50
2023-01-06T18:04:14.965Z,6.93
2023-01-06T18:06:52.550Z,7.33
2023-01-06T18:09:22.315Z,7.97
2023-01-06T18:11:50.675Z,9.87
2023-01-06T18:14:23.956Z,8.07
2023-01-06T18:16:54.171Z,9.63
2023-01-06T18:19:21.320Z,7.13
2023-01-06T18:21:49.789Z,8.73
2023-01-06T18:24:22.930Z,8.27
2023-01-06T18:26:51.641Z,6.93
2023-01-06T18:29:20.207Z,7.83
2023-01-06T18:31:48.475Z,8.10
2023-01-06T18:34:45.119Z,10.83
2023-01-06T18:37:12.262Z,16.00
2023-01-06T18:39:41.131Z,9.63
2023-01-06T18:42:16.241Z,13.80
2023-01-06T18:44:43.441Z,12.30
2023-01-06T18:47:22.206Z,10.47
2023-01-06T18:49:50.372Z,11.03
2023-01-06T18:52:40.786Z,9.23
2023-01-06T18:55:37.443Z,14.93
2023-01-06T18:58:21.775Z,12.20
2023-01-06T19:00:53.718Z,15.47
2023-01-06T19:03:32.243Z,12.57
2023-01-06T19:06:07.243Z,20.30
2023-01-06T19:08:35.531Z,13.47
2023-01-06T19:11:03.938Z,15.37
2023-01-06T19:13:32.204Z,14.57
2023-01-06T19:16:06.653Z,15.23
2023-01-06T19:18:35.004Z,18.43
2023-01-06T19:21:03.922Z,14.43
2023-01-06T19:23:32.633Z,13.87
2023-01-06T19:26:06.349Z,14.63
2023-01-06T19:28:36.977Z,13.80
2023-01-06T19:31:04.943Z,11.67
2023-01-06T19:33:41.263Z,10.73
2023-01-06T19:36:27.121Z,14.87
2023-01-06T19:38:54.392Z,15.00
2023-01-06T19:41:21.503Z,16.53
2023-01-06T19:43:48.863Z,15.83
2023-01-06T19:46:23.543Z,18.47
2023-01-06T19:48:51.182Z,16.83
2023-01-06T19:51:21.341Z,17.80
2023-01-06T19:53:53.279Z,13.77
2023-01-06T19:56:49.613Z,17.90
2023-01-06T19:59:21.922Z,18.57
2023-01-06T20:01:51.708Z,14.97
2023-01-06T20:04:24.981Z,21.67
2023-01-06T20:06:52.138Z,24.00
2023-01-06T20:09:21.652Z,18.50
2023-01-06T20:11:49.901Z,18.87
2023-01-06T20:14:17.105Z,42.30
2023-01-06T20:16:44.341Z,24.03
2023-01-06T20:19:11.625Z,21.90
2023-01-06T20:21:40.193Z,24.07
2023-01-06T20:24:17.084Z,25.87
2023-01-06T20:26:44.208Z,26.43
2023-01-06T20:29:11.448Z,26.10
2023-01-06T20:31:38.728Z,28.30
2023-01-06T20:34:06.213Z,43.50
2023-01-06T20:36:33.323Z,38.37
2023-01-06T20:39:00.575Z,33.47
2023-01-06T20:41:27.728Z,22.53
2023-01-06T20:43:54.910Z,23.10
2023-01-06T20:46:22.057Z,18.63
2023-01-06T20:48:49.337Z,33.87
2023-01-06T20:51:16.451Z,42.30
2023-01-06T20:53:43.629Z,34.90
2023-01-06T20:56:10.808Z,23.23
2023-01-06T20:58:37.958Z,25.47
2023-01-06T21:01:05.259Z,32.70
2023-01-06T21:03:32.478Z,27.00
2023-01-06T21:05:59.652Z,29.63
2023-01-06T21:08:26.774Z,28.73
2023-01-06T21:10:53.925Z,33.77
2023-01-06T21:13:24.010Z,29.27
2023-01-06T21:15:51.499Z,26.93
2023-01-06T21:18:18.662Z,39.50
2023-01-06T21:20:46.484Z,33.83
2023-01-06T21:23:13.686Z,30.70
2023-01-06T21:25:40.852Z,36.93
2023-01-06T21:28:08.148Z,31.87
2023-01-06T21:30:35.379Z,29.53
2023-01-06T21:33:02.571Z,40.67
2023-01-06T21:35:29.747Z,41.87
2023-01-06T21:37:56.911Z,44.17
2023-01-06T21:40:24.052Z,36.90
2023-01-06T21:43:09.688Z,35.60
2023-01-06T21:45:40.892Z,38.67
2023-01-06T21:48:08.647Z,40.80
2023-01-06T21:50:37.973Z,43.60
2023-01-06T21:53:05.362Z,44.23
2023-01-06T21:55:32.524Z,45.03
2023-01-06T21:57:59.902Z,35.33
2023-01-06T22:00:27.053Z,42.93
2023-01-06T22:02:54.292Z,35.90
2023-01-06T22:05:22.608Z,39.70
2023-01-06T22:07:51.331Z,40.70
2023-01-06T22:10:19.373Z,45.30
2023-01-06T22:12:47.360Z,46.47
2023-01-06T22:15:14.997Z,43.67
2023-01-06T22:17:42.568Z,46.40
2023-01-06T22:20:10.219Z,44.23
2023-01-06T22:22:37.459Z,39.70
2023-01-06T22:25:05.127Z,47.60
2023-01-06T22:27:32.315Z,44.43
2023-01-06T22:29:59.438Z,37.67
2023-01-06T22:32:28.211Z,50.10
2023-01-06T22:34:55.404Z,41.33
2023-01-06T22:37:22.540Z,43.73
2023-01-06T22:39:49.966Z,39.93
2023-01-06T22:42:17.143Z,41.70
2023-01-06T22:44:44.328Z,46.87
2023-01-06T22:47:11.463Z,43.67
2023-01-06T22:49:38.609Z,51.70
2023-01-06T22:52:05.748Z,52.07
2023-01-06T22:54:32.905Z,57.20
2023-01-06T22:57:00.044Z,44.37
2023-01-06T22:59:27.232Z,45.17
2023-01-06T23:01:54.468Z,44.13
2023-01-06T23:04:21.784Z,47.40
2023-01-06T23:06:49.182Z,47.07
2023-01-06T23:09:16.810Z,42.20
2023-01-06T23:11:44.030Z,48.10
2023-01-06T23:14:12.218Z,51.13
2023-01-06T23:16:40.501Z,53.17
2023-01-06T23:19:08.784Z,41.53
2023-01-06T23:21:36.036Z,46.87
2023-01-06T23:24:03.697Z,46.97
2023-01-06T23:26:34.049Z,41.17
2023-01-06T23:29:01.318Z,42.80
2023-01-06T23:31:30.225Z,40.47
2023-01-06T23:33:58.685Z,45.90
2023-01-06T23:36:27.514Z,47.13
2023-01-06T23:38:56.113Z,45.47
2023-01-06T23:41:24.798Z,49.37
2023-01-06T23:43:52.625Z,36.30
2023-01-06T23:46:20.997Z,41.30
2023-01-06T23:48:48.915Z,39.90
2023-01-06T23:51:16.857Z,40.33
2023-01-06T23:53:44.062Z,52.50
2023-01-06T23:56:18.816Z,48.63
2023-01-06T23:58:46.912Z,39.00
